Time;durP1;ratioP1;P1;durP2;ratioP2;P2;SDS_P1;SDS_P2;PMS_P1;PMS_P2;Temp;Humidity;BMP_temperature;BMP_pressure;BME280_temperature;BME280_humidity;BME280_pressure;Samples;Min_cycle;Max_cycle;Signal;HPM_P1;HPM_P2
2022/01/02 00:01:19;;;;;;;;;;;;;;;;;;5050290;28;19947;-80
2022/01/02 00:03:47;;;;;;;;;;;;;;;;;;5018438;28;19924;-80
2022/01/02 00:06:12;;;;;;;;;;;;;;;;;;5051956;28;19927;-79
2022/01/02 00:09:07;;;;;;;;;;;;;;;;;;5019142;28;19917;-80
2022/01/02 00:14:26;;;;;;;;;;;;;;;;;;4960021;28;19918;-78
2022/01/02 00:17:01;;;;;;;;;;;;;;;;;;4971744;28;19918;-79
2022/01/02 00:19:31;;;;;;;;;;;;;;;;;;4957534;28;19913;-79
2022/01/02 00:21:59;;;;;;;;;;;;;;;;;;4967907;28;19915;-80
2022/01/02 00:24:26;;;;;;;;;;;;;;;;;;4960025;28;19937;-79
2022/01/02 00:26:54;;;;;;;;;;;;;;;;;;4968107;28;19964;-79
2022/01/02 00:29:22;;;;;;;;;;;;;;;;;;4926504;29;19981;-79
2022/01/02 00:31:47;;;;;;;;;;;;;;;;;;4956326;28;19918;-81
2022/01/02 00:34:15;;;;;;;;;;;;;;;;;;4953188;28;20263;-79
2022/01/02 00:36:40;;;;;;;;;;;;;;;;;;4952860;28;19914;-80
2022/01/02 00:39:06;;;;;;;;;;;;;;;;;;4969246;28;19925;-79
2022/01/02 00:41:46;;;;;;;;;;;;;;;;;;4942871;28;19926;-80
2022/01/02 00:44:24;;;;;;;;;;;;;;;;;;4938349;28;19922;-79
2022/01/02 00:46:58;;;;;;;;;;;;;;;;;;4956883;28;19918;-79
2022/01/02 00:49:24;;;;;;;;;;;;;;;;;;5002333;28;19925;-79
2022/01/02 00:51:51;;;;;;;;;;;;;;;;;;5015376;28;19924;-78
2022/01/02 00:54:17;;;;;;;;;;;;;;;;;;4998881;28;20247;-78
2022/01/02 00:56:43;;;;;;;;;;;;;;;;;;5000991;28;19917;-78
2022/01/02 00:59:11;;;;;;;;;;;;;;;;;;5024376;28;20016;-79
2022/01/02 01:01:41;;;;;;;;;;;;;;;;;;5012524;28;19917;-78
2022/01/02 01:04:06;;;;;;;;;;;;;;;;;;5010117;28;19917;-78
2022/01/02 01:06:34;;;;;;;;;;;;;;;;;;5015584;28;19925;-79
2022/01/02 01:09:04;;;;;;;;;;;;;;;;;;5016992;28;19913;-78
2022/01/02 01:11:32;;;;;;;;;;;;;;;;;;5016936;28;19917;-79
2022/01/02 01:14:02;;;;;;;;;;;;;;;;;;5013769;28;19917;-78
2022/01/02 01:16:27;;;;;;;;;;;;;;;;;;4997417;28;19922;-79
2022/01/02 01:18:53;;;;;;;;;;;;;;;;;;5005907;28;19968;-79
2022/01/02 01:21:21;;;;;;;;;;;;;;;;;;5017177;28;19917;-79
2022/01/02 01:23:46;;;;;;;;;;;;;;;;;;5027591;28;19917;-80
2022/01/02 01:26:16;;;;;;;;;;;;;;;;;;5014961;28;20018;-78
2022/01/02 01:28:41;;;;;;;;;;;;;;;;;;5022085;28;20355;-79
2022/01/02 01:31:08;;;;;;;;;;;;;;;;;;5035984;28;19913;-79
2022/01/02 01:33:34;;;;;;;;;;;;;;;;;;5038991;28;19914;-79
2022/01/02 01:36:01;;;;;;;;;;;;;;;;;;5012310;28;19980;-79
2022/01/02 01:38:29;;;;;;;;;;;;;;;;;;5026583;28;19913;-79
2022/01/02 01:41:03;;;;;;;;;;;;;;;;;;5005365;28;19917;-79
2022/01/02 01:43:37;;;;;;;;;;;;;;;;;;5030164;28;19932;-78
2022/01/02 01:46:05;;;;;;;;;;;;;;;;;;5030924;28;20004;-78
2022/01/02 01:48:31;;;;;;;;;;;;;;;;;;5016097;28;19921;-80
2022/01/02 01:50:58;;;;;;;;;;;;;;;;;;5014769;28;19975;-79
2022/01/02 01:53:23;;;;;;;;;;;;;;;;;;5017309;28;19972;-78
2022/01/02 01:55:49;;;;;;;;;;;;;;;;;;5016547;28;19914;-78
2022/01/02 01:58:14;;;;;;;;;;;;;;;;;;5015098;28;20373;-79
2022/01/02 02:00:40;;;;;;;;;;;;;;;;;;4998804;28;20024;-79
2022/01/02 02:03:07;;;;;;;;;;;;;;;;;;5030763;28;19913;-78
2022/01/02 02:05:32;;;;;;;;;;;;;;;;;;5025671;28;20000;-79
2022/01/02 02:08:03;;;;;;;;;;;;;;;;;;5038651;28;20012;-78
2022/01/02 02:10:36;;;;;;;;;;;;;;;;;;5014558;28;19913;-78
2022/01/02 02:13:04;;;;;;;;;;;;;;;;;;5015224;28;20405;-78
2022/01/02 02:15:37;;;;;;;;;;;;;;;;;;5031442;28;19913;-78
2022/01/02 02:18:05;;;;;;;;;;;;;;;;;;5015559;28;20282;-78
2022/01/02 02:20:31;;;;;;;;;;;;;;;;;;5030775;28;19921;-78
2022/01/02 02:22:56;;;;;;;;;;;;;;;;;;5014079;28;20438;-78
2022/01/02 02:25:23;;;;;;;;;;;;;;;;;;5014622;28;19917;-77
2022/01/02 02:27:49;;;;;;;;;;;;;;;;;;5014494;28;19985;-78
2022/01/02 02:30:19;;;;;;;;;;;;;;;;;;5015411;28;19933;-77
2022/01/02 02:32:46;;;;;;;;;;;;;;;;;;5014971;28;19921;-78
2022/01/02 02:35:12;;;;;;;;;;;;;;;;;;5030950;28;19917;-78
2022/01/02 02:37:43;;;;;;;;;;;;;;;;;;5013844;28;19945;-77
2022/01/02 02:40:10;;;;;;;;;;;;;;;;;;4994687;28;19922;-77
2022/01/02 02:43:02;;;;;;;;;;;;;;;;;;5021863;28;19922;-78
2022/01/02 02:51:01;;;;;;;;;;;;;;;;;;5039451;28;19999;-78
2022/01/02 02:53:28;;;;;;;;;;;;;;;;;;5054586;28;19966;-78
2022/01/02 02:55:57;;;;;;;;;;;;;;;;;;5054812;28;19913;-78
2022/01/02 03:01:07;;;;;;;;;;;;;;;;;;5045394;28;19986;-80
2022/01/02 03:03:33;;;;;;;;;;;;;;;;;;5052162;28;19924;-80
2022/01/02 03:05:58;;;;;;;;;;;;;;;;;;5052963;28;19913;-79
2022/01/02 03:08:26;;;;;;;;;;;;;;;;;;5036484;28;19988;-79
2022/01/02 03:10:51;;;;;;;;;;;;;;;;;;5061745;28;19942;-79
2022/01/02 03:13:16;;;;;;;;;;;;;;;;;;5032360;28;19921;-78
2022/01/02 03:15:44;;;;;;;;;;;;;;;;;;5017018;28;20342;-78
2022/01/02 03:18:09;;;;;;;;;;;;;;;;;;5054481;28;19917;-79
2022/01/02 03:20:37;;;;;;;;;;;;;;;;;;5054315;28;19913;-78
2022/01/02 03:23:05;;;;;;;;;;;;;;;;;;5068414;28;19916;-79
2022/01/02 03:25:32;;;;;;;;;;;;;;;;;;5074218;28;19912;-78
2022/01/02 03:27:57;;;;;;;;;;;;;;;;;;5037155;28;20011;-78
2022/01/02 03:30:23;;;;;;;;;;;;;;;;;;5053340;28;19956;-79
2022/01/02 03:32:50;;;;;;;;;;;;;;;;;;5057951;28;19923;-78
2022/01/02 03:35:18;;;;;;;;;;;;;;;;;;5054063;28;20018;-79
2022/01/02 03:37:43;;;;;;;;;;;;;;;;;;5054034;28;19916;-79
2022/01/02 03:40:11;;;;;;;;;;;;;;;;;;5052982;28;20004;-78
2022/01/02 03:42:39;;;;;;;;;;;;;;;;;;5052205;28;19970;-79
2022/01/02 03:45:06;;;;;;;;;;;;;;;;;;5062801;28;19992;-79
2022/01/02 03:47:31;;;;;;;;;;;;;;;;;;5057158;28;19913;-79
2022/01/02 03:49:57;;;;;;;;;;;;;;;;;;5053962;28;19924;-79
2022/01/02 03:52:26;;;;;;;;;;;;;;;;;;5051970;28;19921;-78
2022/01/02 03:54:51;;;;;;;;;;;;;;;;;;5046173;28;19917;-78
2022/01/02 03:57:17;;;;;;;;;;;;;;;;;;5040504;28;19917;-78
2022/01/02 03:59:42;;;;;;;;;;;;;;;;;;5033965;28;20334;-78
2022/01/02 04:02:09;;;;;;;;;;;;;;;;;;5045010;28;19921;-78
2022/01/02 04:04:39;;;;;;;;;;;;;;;;;;5053814;28;19943;-79
2022/01/02 04:07:09;;;;;;;;;;;;;;;;;;5053271;28;20027;-79
2022/01/02 04:09:34;;;;;;;;;;;;;;;;;;5040403;28;20016;-79
2022/01/02 04:12:02;;;;;;;;;;;;;;;;;;5053527;28;19974;-79
2022/01/02 04:14:32;;;;;;;;;;;;;;;;;;5053911;28;20416;-79
2022/01/02 04:17:01;;;;;;;;;;;;;;;;;;5053419;28;19917;-79
2022/01/02 04:19:26;;;;;;;;;;;;;;;;;;5040244;28;19917;-79
2022/01/02 04:21:51;;;;;;;;;;;;;;;;;;5062380;28;19936;-78
2022/01/02 04:24:16;;;;;;;;;;;;;;;;;;5053314;28;20349;-78
2022/01/02 04:26:42;;;;;;;;;;;;;;;;;;5055614;28;19920;-79
2022/01/02 04:29:07;;;;;;;;;;;;;;;;;;5039810;28;19982;-80
2022/01/02 04:31:32;;;;;;;;;;;;;;;;;;5057159;28;19920;-80
2022/01/02 04:33:57;;;;;;;;;;;;;;;;;;5056441;28;20360;-80
2022/01/02 04:36:23;;;;;;;;;;;;;;;;;;5057384;28;19923;-80
2022/01/02 04:38:48;;;;;;;;;;;;;;;;;;5052266;28;19916;-80
2022/01/02 04:41:15;;;;;;;;;;;;;;;;;;5056292;28;19912;-80
2022/01/02 04:43:43;;;;;;;;;;;;;;;;;;5037267;28;19921;-79
2022/01/02 04:46:10;;;;;;;;;;;;;;;;;;5039065;28;19913;-80
2022/01/02 04:48:35;;;;;;;;;;;;;;;;;;5057005;28;20261;-81
2022/01/02 04:51:01;;;;;;;;;;;;;;;;;;5041051;28;19924;-81
2022/01/02 04:53:30;;;;;;;;;;;;;;;;;;5054885;28;19912;-81
2022/01/02 04:55:57;;;;;;;;;;;;;;;;;;5037386;28;20246;-78
2022/01/02 04:58:22;;;;;;;;;;;;;;;;;;5056015;28;19913;-79
2022/01/02 05:00:54;;;;;;;;;;;;;;;;;;5038185;28;19917;-80
2022/01/02 05:03:21;;;;;;;;;;;;;;;;;;5062154;28;19927;-80
2022/01/02 05:05:46;;;;;;;;;;;;;;;;;;5055162;28;19985;-80
2022/01/02 05:11:27;;;;;;;;;;;;;;;;;;5055098;28;20035;-80
2022/01/02 05:13:52;;;;;;;;;;;;;;;;;;5056383;28;19964;-81
2022/01/02 05:16:29;;;;;;;;;;;;;;;;;;5056297;28;19945;-80
2022/01/02 05:18:56;;;;;;;;;;;;;;;;;;5056112;28;19924;-79
2022/01/02 05:21:26;;;;;;;;;;;;;;;;;;5055937;28;19913;-79
2022/01/02 05:23:51;;;;;;;;;;;;;;;;;;5039249;28;20417;-80
2022/01/02 05:26:17;;;;;;;;;;;;;;;;;;5022235;28;20033;-80
2022/01/02 05:28:42;;;;;;;;;;;;;;;;;;5038765;28;19920;-82
2022/01/02 05:31:07;;;;;;;;;;;;;;;;;;5019016;28;20242;-82
2022/01/02 05:33:32;;;;;;;;;;;;;;;;;;5020251;28;19974;-81
2022/01/02 05:36:00;;;;;;;;;;;;;;;;;;5055974;28;20441;-81
2022/01/02 05:38:31;;;;;;;;;;;;;;;;;;5021940;28;19927;-81
2022/01/02 05:41:01;;;;;;;;;;;;;;;;;;5022229;28;19955;-81
2022/01/02 05:43:27;;;;;;;;;;;;;;;;;;5038568;28;19921;-81
2022/01/02 05:45:52;;;;;;;;;;;;;;;;;;5055305;28;19921;-81
2022/01/02 05:48:18;;;;;;;;;;;;;;;;;;5037557;28;20253;-81
2022/01/02 05:50:43;;;;;;;;;;;;;;;;;;5038510;28;19920;-81
2022/01/02 05:53:08;;;;;;;;;;;;;;;;;;5038369;28;19912;-81
2022/01/02 05:55:37;;;;;;;;;;;;;;;;;;5038391;28;20341;-81
2022/01/02 05:58:02;;;;;;;;;;;;;;;;;;5054935;28;20004;-81
2022/01/02 06:00:31;;;;;;;;;;;;;;;;;;5054721;28;20003;-81
2022/01/02 06:02:56;;;;;;;;;;;;;;;;;;5038187;28;19917;-81
2022/01/02 06:05:24;;;;;;;;;;;;;;;;;;5037849;28;19920;-81
2022/01/02 06:07:54;;;;;;;;;;;;;;;;;;5038401;28;19917;-81
2022/01/02 06:10:20;;;;;;;;;;;;;;;;;;5021705;28;19924;-79
2022/01/02 06:12:45;;;;;;;;;;;;;;;;;;5054734;28;20311;-81
2022/01/02 06:15:12;;;;;;;;;;;;;;;;;;5048236;28;19928;-81
2022/01/02 06:17:38;;;;;;;;;;;;;;;;;;5035765;28;19917;-82
2022/01/02 06:20:03;;;;;;;;;;;;;;;;;;5050955;28;19917;-81
2022/01/02 06:22:28;;;;;;;;;;;;;;;;;;5018222;28;19940;-82
2022/01/02 06:24:56;;;;;;;;;;;;;;;;;;5039971;28;19964;-82
2022/01/02 06:27:24;;;;;;;;;;;;;;;;;;5021885;28;20007;-83
2022/01/02 06:29:49;;;;;;;;;;;;;;;;;;5018808;28;19925;-83
2022/01/02 06:32:17;;;;;;;;;;;;;;;;;;5035828;28;20341;-83
2022/01/02 06:34:44;;;;;;;;;;;;;;;;;;5030451;28;19928;-81
2022/01/02 06:37:27;;;;;;;;;;;;;;;;;;5054677;28;19912;-79
2022/01/02 06:39:54;;;;;;;;;;;;;;;;;;5032124;28;19943;-80
2022/01/02 06:42:20;;;;;;;;;;;;;;;;;;5060341;28;20345;-80
2022/01/02 06:44:48;;;;;;;;;;;;;;;;;;5036642;28;19920;-78
2022/01/02 06:47:16;;;;;;;;;;;;;;;;;;5048241;28;19963;-79
2022/01/02 06:49:43;;;;;;;;;;;;;;;;;;5053444;28;19916;-79
2022/01/02 06:52:11;;;;;;;;;;;;;;;;;;5038742;28;19956;-79
2022/01/02 06:54:40;;;;;;;;;;;;;;;;;;5054341;28;20011;-78
2022/01/02 06:57:07;;;;;;;;;;;;;;;;;;5050782;28;19978;-80
2022/01/02 06:59:32;;;;;;;;;;;;;;;;;;5052419;28;19952;-79
2022/01/02 07:02:00;;;;;;;;;;;;;;;;;;5036661;28;19956;-79
2022/01/02 07:04:27;;;;;;;;;;;;;;;;;;5051108;28;20012;-79
2022/01/02 07:06:53;;;;;;;;;;;;;;;;;;5054048;28;19920;-79
2022/01/02 07:09:18;;;;;;;;;;;;;;;;;;5036586;28;19974;-79
2022/01/02 07:11:46;;;;;;;;;;;;;;;;;;5024569;28;19920;-79
2022/01/02 07:14:11;;;;;;;;;;;;;;;;;;5053929;28;19913;-79
2022/01/02 07:16:36;;;;;;;;;;;;;;;;;;5036771;28;19919;-79
2022/01/02 07:19:01;;;;;;;;;;;;;;;;;;5036286;28;19916;-79
2022/01/02 07:21:29;;;;;;;;;;;;;;;;;;5020322;28;20404;-79
2022/01/02 07:23:55;;;;;;;;;;;;;;;;;;5053256;28;19921;-79
2022/01/02 07:26:20;;;;;;;;;;;;;;;;;;5051718;28;19918;-80
2022/01/02 07:28:45;;;;;;;;;;;;;;;;;;5036190;28;20011;-78
2022/01/02 07:31:13;;;;;;;;;;;;;;;;;;5054585;28;20456;-78
2022/01/02 07:33:40;;;;;;;;;;;;;;;;;;5054005;28;19924;-78
2022/01/02 07:36:05;;;;;;;;;;;;;;;;;;5053858;28;19923;-78
2022/01/02 07:38:33;;;;;;;;;;;;;;;;;;5052678;28;19917;-77
2022/01/02 07:40:58;;;;;;;;;;;;;;;;;;5054168;28;19967;-77
2022/01/02 07:43:23;;;;;;;;;;;;;;;;;;5036207;28;20288;-77
2022/01/02 07:45:49;;;;;;;;;;;;;;;;;;5053964;28;20334;-78
2022/01/02 07:48:14;;;;;;;;;;;;;;;;;;5054115;28;20023;-78
2022/01/02 07:50:39;;;;;;;;;;;;;;;;;;5036251;28;20318;-78
2022/01/02 07:53:04;;;;;;;;;;;;;;;;;;5041811;28;20387;-78
2022/01/02 07:55:32;;;;;;;;;;;;;;;;;;5028780;28;20393;-77
2022/01/02 07:57:57;;;;;;;;;;;;;;;;;;5054016;28;19952;-78
2022/01/02 08:00:25;;;;;;;;;;;;;;;;;;5055472;28;19955;-79
2022/01/02 08:02:50;;;;;;;;;;;;;;;;;;5040943;28;19938;-78
2022/01/02 08:05:17;;;;;;;;;;;;;;;;;;5054850;28;19917;-78
2022/01/02 08:07:43;;;;;;;;;;;;;;;;;;5044098;28;19925;-78
2022/01/02 08:10:08;;;;;;;;;;;;;;;;;;5057853;28;20338;-78
2022/01/02 08:12:36;;;;;;;;;;;;;;;;;;5058269;28;19912;-78
2022/01/02 08:15:01;;;;;;;;;;;;;;;;;;5058129;28;19923;-78
2022/01/02 08:17:29;;;;;;;;;;;;;;;;;;5040013;28;19917;-78
2022/01/02 08:19:54;;;;;;;;;;;;;;;;;;5057672;28;19986;-78
2022/01/02 08:22:24;;;;;;;;;;;;;;;;;;5057335;28;19917;-78
2022/01/02 08:24:50;;;;;;;;;;;;;;;;;;5039439;28;19936;-78
2022/01/02 08:27:17;;;;;;;;;;;;;;;;;;5056124;28;19917;-78
2022/01/02 08:29:45;;;;;;;;;;;;;;;;;;5039612;28;19952;-77
2022/01/02 08:32:10;;;;;;;;;;;;;;;;;;5038845;28;19917;-78
2022/01/02 08:34:35;;;;;;;;;;;;;;;;;;5027833;28;19924;-78
2022/01/02 08:37:00;;;;;;;;;;;;;;;;;;5056973;28;20467;-78
2022/01/02 08:39:28;;;;;;;;;;;;;;;;;;5036812;28;19917;-78
2022/01/02 08:41:53;;;;;;;;;;;;;;;;;;5039607;28;19948;-78
2022/01/02 08:44:23;;;;;;;;;;;;;;;;;;5056283;28;19975;-78
2022/01/02 08:46:50;;;;;;;;;;;;;;;;;;5057230;28;19916;-78
2022/01/02 08:49:18;;;;;;;;;;;;;;;;;;5037497;28;19917;-78
2022/01/02 08:51:45;;;;;;;;;;;;;;;;;;5057904;28;19921;-78
2022/01/02 08:54:11;;;;;;;;;;;;;;;;;;5056765;28;19960;-78
2022/01/02 08:56:38;;;;;;;;;;;;;;;;;;5055878;28;19979;-78
2022/01/02 08:59:03;;;;;;;;;;;;;;;;;;5056690;28;19927;-78
2022/01/02 09:01:29;;;;;;;;;;;;;;;;;;5039352;28;19912;-78
2022/01/02 09:03:56;;;;;;;;;;;;;;;;;;5035697;28;19921;-78
2022/01/02 09:06:22;;;;;;;;;;;;;;;;;;5045374;28;19924;-79
2022/01/02 09:08:47;;;;;;;;;;;;;;;;;;5039473;28;20257;-78
2022/01/02 09:11:12;;;;;;;;;;;;;;;;;;5055940;28;19913;-78
2022/01/02 09:13:38;;;;;;;;;;;;;;;;;;5039026;28;19924;-78
2022/01/02 09:16:03;;;;;;;;;;;;;;;;;;5057059;28;19945;-78
2022/01/02 09:18:31;;;;;;;;;;;;;;;;;;5055711;28;19912;-77
2022/01/02 09:20:57;;;;;;;;;;;;;;;;;;5054915;28;19912;-78
2022/01/02 09:23:22;;;;;;;;;;;;;;;;;;5056520;28;19931;-79
2022/01/02 09:25:47;;;;;;;;;;;;;;;;;;5038980;28;19927;-78
2022/01/02 09:28:12;;;;;;;;;;;;;;;;;;5038892;28;19974;-79
2022/01/02 09:30:37;;;;;;;;;;;;;;;;;;5038800;28;19960;-78
2022/01/02 09:33:08;;;;;;;;;;;;;;;;;;5050165;28;19921;-79
2022/01/02 09:35:34;;;;;;;;;;;;;;;;;;5055139;28;19927;-78
2022/01/02 09:38:01;;;;;;;;;;;;;;;;;;5022182;28;20397;-79
2022/01/02 09:40:27;;;;;;;;;;;;;;;;;;5039103;28;19948;-78
2022/01/02 09:42:55;;;;;;;;;;;;;;;;;;5021765;28;19960;-77
2022/01/02 09:45:22;;;;;;;;;;;;;;;;;;5055883;28;19921;-78
2022/01/02 09:47:48;;;;;;;;;;;;;;;;;;5055846;28;19921;-78
2022/01/02 09:50:13;;;;;;;;;;;;;;;;;;5054765;28;20413;-78
2022/01/02 09:52:38;;;;;;;;;;;;;;;;;;5053419;28;20250;-77
2022/01/02 09:55:03;;;;;;;;;;;;;;;;;;5065427;28;20328;-78
2022/01/02 09:57:29;;;;;;;;;;;;;;;;;;5038128;28;19923;-78
2022/01/02 09:59:56;;;;;;;;;;;;;;;;;;5056178;28;20391;-77
2022/01/02 10:02:23;;;;;;;;;;;;;;;;;;5055265;28;19916;-77
2022/01/02 10:04:48;;;;;;;;;;;;;;;;;;5055836;28;19932;-77
2022/01/02 10:07:26;;;;;;;;;;;;;;;;;;5055415;28;19912;-77
2022/01/02 10:09:51;;;;;;;;;;;;;;;;;;5035747;28;19928;-77
2022/01/02 10:12:21;;;;;;;;;;;;;;;;;;5035317;28;19917;-77
2022/01/02 10:14:46;;;;;;;;;;;;;;;;;;5055641;28;19917;-78
2022/01/02 10:17:14;;;;;;;;;;;;;;;;;;5055534;28;19920;-78
2022/01/02 10:19:42;;;;;;;;;;;;;;;;;;5045070;28;19917;-77
2022/01/02 10:22:10;;;;;;;;;;;;;;;;;;5050675;28;20271;-78
2022/01/02 10:24:37;;;;;;;;;;;;;;;;;;5034349;28;19917;-77
2022/01/02 10:27:06;;;;;;;;;;;;;;;;;;5039220;28;19955;-77
2022/01/02 10:29:41;;;;;;;;;;;;;;;;;;5052560;28;19970;-80
2022/01/02 10:32:23;;;;;;;;;;;;;;;;;;5038035;28;19920;-81
2022/01/02 10:34:54;;;;;;;;;;;;;;;;;;5020803;28;20231;-81
2022/01/02 10:37:23;;;;;;;;;;;;;;;;;;5054488;28;20250;-79
2022/01/02 10:39:51;;;;;;;;;;;;;;;;;;5055132;28;20361;-79
2022/01/02 10:42:23;;;;;;;;;;;;;;;;;;5054084;28;19963;-81
2022/01/02 10:44:53;;;;;;;;;;;;;;;;;;5034944;28;20499;-80
2022/01/02 10:47:26;;;;;;;;;;;;;;;;;;5055271;28;19917;-79
2022/01/02 10:50:07;;;;;;;;;;;;;;;;;;5045665;28;20356;-78
2022/01/02 10:52:33;;;;;;;;;;;;;;;;;;5069183;28;19912;-80
2022/01/02 10:55:05;;;;;;;;;;;;;;;;;;5034250;28;19948;-79
2022/01/02 10:57:31;;;;;;;;;;;;;;;;;;5034511;28;20008;-78
2022/01/02 10:59:58;;;;;;;;;;;;;;;;;;5053737;28;20008;-78
2022/01/02 11:02:24;;;;;;;;;;;;;;;;;;5038211;28;19920;-79
2022/01/02 11:04:58;;;;;;;;;;;;;;;;;;5054083;28;20239;-86
2022/01/02 11:07:27;;;;;;;;;;;;;;;;;;5036614;28;19917;-81
2022/01/02 11:09:56;;;;;;;;;;;;;;;;;;5021131;28;19916;-81
2022/01/02 11:12:40;;;;;;;;;;;;;;;;;;5053590;28;20337;-81
2022/01/02 11:15:06;;;;;;;;;;;;;;;;;;5035368;28;20344;-81
2022/01/02 11:17:33;;;;;;;;;;;;;;;;;;5037153;28;19920;-82
2022/01/02 11:20:03;;;;;;;;;;;;;;;;;;5017894;28;19932;-81
2022/01/02 11:22:34;;;;;;;;;;;;;;;;;;5020579;28;20367;-83
2022/01/02 11:25:13;;;;;;;;;;;;;;;;;;5053712;28;20300;-83
2022/01/02 11:27:45;;;;;;;;;;;;;;;;;;5034060;28;19928;-81
2022/01/02 11:30:42;;;;;;;;;;;;;;;;;;5017375;28;19971;-82
2022/01/02 11:33:10;;;;;;;;;;;;;;;;;;5001945;28;19913;-80
2022/01/02 11:35:39;;;;;;;;;;;;;;;;;;5053839;28;19946;-83
2022/01/02 11:38:06;;;;;;;;;;;;;;;;;;5039062;28;19974;-81
2022/01/02 11:40:47;;;;;;;;;;;;;;;;;;5037278;28;19943;-81
2022/01/02 11:46:56;;;;;;;;;;;;;;;;;;5053906;28;20050;-82
2022/01/02 11:49:22;;;;;;;;;;;;;;;;;;5035642;28;19917;-80
2022/01/02 11:51:49;;;;;;;;;;;;;;;;;;5060831;28;19924;-80
2022/01/02 11:54:48;;;;;;;;;;;;;;;;;;5054207;28;20007;-81
2022/01/02 12:00:03;;;;;;;;;;;;;;;;;;5052437;28;20120;-81
2022/01/02 12:02:36;;;;;;;;;;;;;;;;;;5036646;28;20303;-81
2022/01/02 12:05:15;;;;;;;;;;;;;;;;;;5017222;28;19976;-81
2022/01/02 12:07:56;;;;;;;;;;;;;;;;;;5050732;28;19927;-81
2022/01/02 12:10:21;;;;;;;;;;;;;;;;;;5054407;28;19948;-80
2022/01/02 12:13:06;;;;;;;;;;;;;;;;;;5053756;28;19963;-81
2022/01/02 12:15:34;;;;;;;;;;;;;;;;;;5053647;28;19916;-81
2022/01/02 12:18:08;;;;;;;;;;;;;;;;;;5048573;28;19913;-83
2022/01/02 12:20:57;;;;;;;;;;;;;;;;;;5052810;28;20350;-80
2022/01/02 12:23:42;;;;;;;;;;;;;;;;;;5053371;28;19912;-81
2022/01/02 12:26:08;;;;;;;;;;;;;;;;;;5036447;28;19913;-81
2022/01/02 12:28:39;;;;;;;;;;;;;;;;;;5039114;28;19917;-78
2022/01/02 12:31:05;;;;;;;;;;;;;;;;;;5054018;28;19917;-80
2022/01/02 12:33:35;;;;;;;;;;;;;;;;;;5053794;28;19912;-81
2022/01/02 12:36:17;;;;;;;;;;;;;;;;;;5032661;28;19920;-81
2022/01/02 12:38:47;;;;;;;;;;;;;;;;;;5036190;28;19912;-79
2022/01/02 12:41:18;;;;;;;;;;;;;;;;;;5049456;28;20012;-79
2022/01/02 12:43:53;;;;;;;;;;;;;;;;;;5036066;28;19974;-81
2022/01/02 12:46:33;;;;;;;;;;;;;;;;;;5052816;28;19967;-80
2022/01/02 12:49:01;;;;;;;;;;;;;;;;;;5057530;28;20004;-80
2022/01/02 12:51:32;;;;;;;;;;;;;;;;;;5051623;28;19913;-80
2022/01/02 12:54:11;;;;;;;;;;;;;;;;;;5020536;28;19956;-79
2022/01/02 12:56:49;;;;;;;;;;;;;;;;;;5056146;28;19927;-80
2022/01/02 12:59:17;;;;;;;;;;;;;;;;;;5054940;28;19970;-79
2022/01/02 13:01:48;;;;;;;;;;;;;;;;;;5060926;28;20003;-79
2022/01/02 13:04:13;;;;;;;;;;;;;;;;;;5053312;28;19921;-79
2022/01/02 13:06:41;;;;;;;;;;;;;;;;;;5062478;28;20401;-81
2022/01/02 13:09:06;;;;;;;;;;;;;;;;;;5037687;28;19924;-80
2022/01/02 13:11:37;;;;;;;;;;;;;;;;;;5033831;28;19916;-79
2022/01/02 13:14:05;;;;;;;;;;;;;;;;;;5039897;28;20019;-81
2022/01/02 13:16:48;;;;;;;;;;;;;;;;;;5058865;28;20277;-79
2022/01/02 13:19:13;;;;;;;;;;;;;;;;;;5064589;28;19916;-81
2022/01/02 13:21:38;;;;;;;;;;;;;;;;;;5055999;28;19917;-80
2022/01/02 13:24:22;;;;;;;;;;;;;;;;;;5042943;28;19925;-82
2022/01/02 13:26:47;;;;;;;;;;;;;;;;;;5059485;28;20000;-80
2022/01/02 13:29:18;;;;;;;;;;;;;;;;;;5063676;28;19916;-81
2022/01/02 13:31:45;;;;;;;;;;;;;;;;;;5060712;28;19942;-81
2022/01/02 13:34:20;;;;;;;;;;;;;;;;;;5060238;28;19920;-80
2022/01/02 13:37:00;;;;;;;;;;;;;;;;;;5066009;28;19917;-79
2022/01/02 13:39:44;;;;;;;;;;;;;;;;;;5058294;28;20373;-82
2022/01/02 13:42:12;;;;;;;;;;;;;;;;;;5062300;28;19948;-82
2022/01/02 13:44:40;;;;;;;;;;;;;;;;;;5039503;28;20435;-82
2022/01/02 13:47:06;;;;;;;;;;;;;;;;;;5058213;28;19916;-82
2022/01/02 13:49:43;;;;;;;;;;;;;;;;;;5044869;28;19945;-81
2022/01/02 13:52:11;;;;;;;;;;;;;;;;;;5058361;28;19932;-80
2022/01/02 13:54:36;;;;;;;;;;;;;;;;;;5046586;28;19967;-80
2022/01/02 13:57:04;;;;;;;;;;;;;;;;;;5061947;28;20020;-82
2022/01/02 13:59:34;;;;;;;;;;;;;;;;;;5060294;28;19928;-81
2022/01/02 14:01:59;;;;;;;;;;;;;;;;;;5061077;28;19979;-79
2022/01/02 14:04:27;;;;;;;;;;;;;;;;;;5059013;28;19984;-81
2022/01/02 14:06:52;;;;;;;;;;;;;;;;;;5044449;28;20279;-79
2022/01/02 14:09:18;;;;;;;;;;;;;;;;;;5060423;28;19955;-79
2022/01/02 14:11:44;;;;;;;;;;;;;;;;;;5041597;28;19941;-79
2022/01/02 14:14:18;;;;;;;;;;;;;;;;;;5058245;28;20014;-82
2022/01/02 14:19:48;;;;;;;;;;;;;;;;;;5056808;28;19948;-79
2022/01/02 14:22:15;;;;;;;;;;;;;;;;;;5060741;28;20062;-79
2022/01/02 14:24:40;;;;;;;;;;;;;;;;;;5052806;28;19928;-80
2022/01/02 14:27:08;;;;;;;;;;;;;;;;;;5046355;28;19917;-80
2022/01/02 14:29:34;;;;;;;;;;;;;;;;;;5052601;28;19974;-79
2022/01/02 14:31:59;;;;;;;;;;;;;;;;;;5017337;28;20285;-82
2022/01/02 14:34:39;;;;;;;;;;;;;;;;;;5037026;28;19932;-79
2022/01/02 14:37:04;;;;;;;;;;;;;;;;;;5055267;28;19916;-82
2022/01/02 14:39:54;;;;;;;;;;;;;;;;;;5056689;28;19928;-79
2022/01/02 14:42:20;;;;;;;;;;;;;;;;;;5053158;28;19917;-79
2022/01/02 14:44:45;;;;;;;;;;;;;;;;;;5000488;28;20012;-81
2022/01/02 14:47:16;;;;;;;;;;;;;;;;;;5008982;28;20285;-81
2022/01/02 14:49:44;;;;;;;;;;;;;;;;;;5017708;28;19921;-81
2022/01/02 14:52:15;;;;;;;;;;;;;;;;;;5028341;28;19918;-80
2022/01/02 14:54:42;;;;;;;;;;;;;;;;;;5017315;28;19917;-79
2022/01/02 14:57:17;;;;;;;;;;;;;;;;;;5014355;28;19913;-81
2022/01/02 14:59:49;;;;;;;;;;;;;;;;;;5033798;28;20361;-83
2022/01/02 15:02:16;;;;;;;;;;;;;;;;;;5017542;28;19999;-86
2022/01/02 15:04:41;;;;;;;;;;;;;;;;;;5016724;28;19921;-82
2022/01/02 15:07:09;;;;;;;;;;;;;;;;;;5017016;28;20016;-82
2022/01/02 15:09:36;;;;;;;;;;;;;;;;;;5029362;28;19917;-82
2022/01/02 15:12:04;;;;;;;;;;;;;;;;;;5031248;28;19924;-83
2022/01/02 15:14:32;;;;;;;;;;;;;;;;;;5015005;28;19917;-81
2022/01/02 15:16:57;;;;;;;;;;;;;;;;;;5017050;28;20283;-83
2022/01/02 15:19:23;;;;;;;;;;;;;;;;;;4998088;28;19913;-85
2022/01/02 15:21:51;;;;;;;;;;;;;;;;;;5015472;28;19917;-83
2022/01/02 15:24:18;;;;;;;;;;;;;;;;;;5015615;28;19929;-79
2022/01/02 15:26:53;;;;;;;;;;;;;;;;;;5015030;28;19985;-80
2022/01/02 15:29:25;;;;;;;;;;;;;;;;;;5028761;28;20007;-81
2022/01/02 15:31:57;;;;;;;;;;;;;;;;;;5014038;28;20317;-80
2022/01/02 15:34:25;;;;;;;;;;;;;;;;;;5021314;28;20004;-80
2022/01/02 15:36:52;;;;;;;;;;;;;;;;;;5014169;28;19927;-79
2022/01/02 15:39:18;;;;;;;;;;;;;;;;;;5014258;28;19928;-79
2022/01/02 15:41:44;;;;;;;;;;;;;;;;;;5013867;28;19921;-79
2022/01/02 15:44:10;;;;;;;;;;;;;;;;;;5038791;28;19921;-80
2022/01/02 15:46:35;;;;;;;;;;;;;;;;;;5032905;28;19928;-85
2022/01/02 15:49:03;;;;;;;;;;;;;;;;;;5031659;28;19969;-83
2022/01/02 15:51:30;;;;;;;;;;;;;;;;;;5038844;28;19925;-82
2022/01/02 15:53:58;;;;;;;;;;;;;;;;;;5023053;28;19916;-79
2022/01/02 15:56:25;;;;;;;;;;;;;;;;;;5040607;28;19917;-79
2022/01/02 15:58:51;;;;;;;;;;;;;;;;;;5043364;28;19980;-78
2022/01/02 16:01:16;;;;;;;;;;;;;;;;;;5035398;28;20033;-80
2022/01/02 16:03:44;;;;;;;;;;;;;;;;;;5039496;28;19931;-79
2022/01/02 16:06:10;;;;;;;;;;;;;;;;;;5050303;28;19917;-79
2022/01/02 16:08:35;;;;;;;;;;;;;;;;;;5020480;28;19936;-79
2022/01/02 16:11:03;;;;;;;;;;;;;;;;;;5036652;28;19928;-79
2022/01/02 16:13:28;;;;;;;;;;;;;;;;;;5035120;28;20354;-79
2022/01/02 16:16:00;;;;;;;;;;;;;;;;;;5051812;28;19917;-80
2022/01/02 16:18:28;;;;;;;;;;;;;;;;;;5039052;28;20269;-79
2022/01/02 16:20:56;;;;;;;;;;;;;;;;;;5053078;28;20040;-79
2022/01/02 16:23:21;;;;;;;;;;;;;;;;;;5037186;28;19917;-78
2022/01/02 16:25:49;;;;;;;;;;;;;;;;;;5048769;28;20022;-78
2022/01/02 16:28:17;;;;;;;;;;;;;;;;;;5036336;28;19921;-78
2022/01/02 16:30:46;;;;;;;;;;;;;;;;;;5037235;28;19949;-79
2022/01/02 16:33:12;;;;;;;;;;;;;;;;;;5038443;28;19924;-80
2022/01/02 16:35:37;;;;;;;;;;;;;;;;;;5037933;28;19924;-80
2022/01/02 16:38:02;;;;;;;;;;;;;;;;;;5046861;28;19913;-78
2022/01/02 16:40:28;;;;;;;;;;;;;;;;;;5038605;28;19916;-78
2022/01/02 16:42:53;;;;;;;;;;;;;;;;;;5038777;28;19913;-79
2022/01/02 16:45:19;;;;;;;;;;;;;;;;;;5017719;28;20485;-78
2022/01/02 16:47:44;;;;;;;;;;;;;;;;;;5017423;28;19928;-78
2022/01/02 16:50:12;;;;;;;;;;;;;;;;;;5016018;28;19957;-78
2022/01/02 16:52:39;;;;;;;;;;;;;;;;;;5017258;28;19940;-78
2022/01/02 16:55:05;;;;;;;;;;;;;;;;;;5017108;28;20390;-83
2022/01/02 16:57:30;;;;;;;;;;;;;;;;;;5017513;28;19928;-83
2022/01/02 17:00:04;;;;;;;;;;;;;;;;;;5016238;28;19936;-83
2022/01/02 17:02:31;;;;;;;;;;;;;;;;;;5012932;28;19918;-83
2022/01/02 17:04:57;;;;;;;;;;;;;;;;;;5012933;28;19925;-83
2022/01/02 17:07:24;;;;;;;;;;;;;;;;;;5015508;28;19925;-83
2022/01/02 17:09:50;;;;;;;;;;;;;;;;;;5013374;28;20008;-83
2022/01/02 17:12:17;;;;;;;;;;;;;;;;;;5007883;28;19949;-84
2022/01/02 17:14:43;;;;;;;;;;;;;;;;;;5032962;28;19913;-86
2022/01/02 17:17:10;;;;;;;;;;;;;;;;;;5034122;28;19917;-85